Time;durP1;ratioP1;P1;durP2;ratioP2;P2;SDS_P1;SDS_P2;PMS_P1;PMS_P2;Temp;Humidity;BMP_temperature;BMP_pressure;BME280_temperature;BME280_humidity;BME280_pressure;Samples;Min_cycle;Max_cycle;Signal;HPM_P1;HPM_P2
2021/12/26 00:01:34;;;;;;;5.00;1.60;;;-6.00;99.90;;;;;;5098360;28;20116;-76
2021/12/26 00:04:01;;;;;;;6.45;2.72;;;-6.00;99.90;;;;;;5126690;28;20071;-77
2021/12/26 00:06:28;;;;;;;1.67;1.17;;;-6.10;99.90;;;;;;5129536;28;20092;-78
2021/12/26 00:08:55;;;;;;;5.00;1.20;;;-6.10;99.90;;;;;;5129578;28;20089;-74
2021/12/26 00:11:21;;;;;;;3.85;1.30;;;-6.10;99.90;;;;;;5109850;28;20058;-78
2021/12/26 00:13:50;;;;;;;4.53;1.63;;;-6.10;99.90;;;;;;5122516;28;20405;-77
2021/12/26 00:16:17;;;;;;;4.95;1.75;;;-6.10;99.90;;;;;;5091471;28;20058;-76
2021/12/26 00:18:45;;;;;;;3.67;1.48;;;-6.10;99.90;;;;;;5109697;28;20031;-75
2021/12/26 00:21:12;;;;;;;3.72;1.55;;;-6.10;99.90;;;;;;5100258;28;20085;-78
2021/12/26 00:23:37;;;;;;;2.70;1.48;;;-6.10;99.90;;;;;;5091219;28;20032;-77
2021/12/26 00:26:04;;;;;;;5.35;1.52;;;-6.20;99.90;;;;;;5112028;28;20103;-80
2021/12/26 00:28:30;;;;;;;4.75;2.13;;;-6.10;99.90;;;;;;5104622;28;20096;-78
2021/12/26 00:30:57;;;;;;;6.75;2.75;;;-6.10;99.90;;;;;;5110492;28;20039;-77
2021/12/26 00:33:24;;;;;;;4.28;2.28;;;-6.20;99.90;;;;;;5097658;28;20170;-79
2021/12/26 00:35:49;;;;;;;3.83;2.28;;;-6.30;99.90;;;;;;5111951;28;20500;-78
2021/12/26 00:38:15;;;;;;;2.70;1.40;;;-6.30;99.90;;;;;;5090375;28;20040;-77
2021/12/26 00:40:42;;;;;;;4.15;2.17;;;-6.30;99.90;;;;;;5113673;28;20047;-78
2021/12/26 00:43:08;;;;;;;5.80;1.60;;;-6.30;99.90;;;;;;5102388;28;20046;-76
2021/12/26 00:45:34;;;;;;;4.00;1.55;;;-6.30;99.90;;;;;;5113040;28;20496;-77
2021/12/26 00:48:00;;;;;;;3.63;1.48;;;-6.30;99.90;;;;;;5096181;28;20071;-78
2021/12/26 00:50:30;;;;;;;1.08;0.93;;;-6.30;99.90;;;;;;5108215;28;20052;-77
2021/12/26 00:52:57;;;;;;;3.60;1.35;;;-6.30;99.90;;;;;;5096657;28;20097;-77
2021/12/26 00:55:23;;;;;;;3.03;1.17;;;-6.30;99.90;;;;;;5103375;28;20089;-77
2021/12/26 00:57:49;;;;;;;2.40;1.25;;;-6.20;99.90;;;;;;5087868;28;20050;-77
2021/12/26 01:00:23;;;;;;;5.60;1.13;;;-6.20;99.90;;;;;;5090581;28;20039;-76
2021/12/26 01:02:49;;;;;;;5.18;1.80;;;-6.20;99.90;;;;;;5098904;28;20031;-79
2021/12/26 01:05:15;;;;;;;2.95;1.10;;;-6.20;99.90;;;;;;5092376;28;20063;-77
2021/12/26 01:07:58;;;;;;;3.38;1.35;;;-6.20;99.90;;;;;;5092247;28;20079;-77
2021/12/26 01:10:37;;;;;;;3.40;1.35;;;-6.30;99.90;;;;;;5091333;28;20056;-78
2021/12/26 01:13:15;;;;;;;3.45;1.10;;;-6.20;99.90;;;;;;5094735;28;20044;-76
2021/12/26 01:15:43;;;;;;;2.35;1.17;;;-6.30;99.90;;;;;;5107375;28;20561;-78
2021/12/26 01:18:09;;;;;;;2.90;1.35;;;-6.20;99.90;;;;;;5098521;28;20040;-76
2021/12/26 01:20:58;;;;;;;3.22;1.48;;;-6.30;99.90;;;;;;5096224;28;20035;-77
2021/12/26 01:23:26;;;;;;;1.98;1.40;;;-6.20;99.90;;;;;;5110085;28;20044;-77
2021/12/26 01:25:52;;;;;;;5.40;1.30;;;-6.20;99.90;;;;;;5125916;27;20496;-77
2021/12/26 01:28:19;;;;;;;3.65;1.25;;;-6.20;99.90;;;;;;5111857;28;20043;-78
2021/12/26 01:30:45;;;;;;;2.25;1.42;;;-6.20;99.90;;;;;;5112590;28;20072;-77
2021/12/26 01:33:12;;;;;;;3.67;1.35;;;-6.20;99.90;;;;;;5087342;28;20645;-76
2021/12/26 01:35:38;;;;;;;4.57;1.40;;;-6.30;99.90;;;;;;5095025;28;20041;-77
2021/12/26 01:38:07;;;;;;;3.25;1.50;;;-6.20;99.90;;;;;;5111725;27;20428;-77
2021/12/26 01:40:36;;;;;;;3.53;1.60;;;-6.30;99.90;;;;;;5112039;28;20620;-77
2021/12/26 01:43:03;;;;;;;6.25;3.55;;;-6.40;99.90;;;;;;5112264;28;20043;-73
2021/12/26 01:45:29;;;;;;;3.78;1.48;;;-6.40;99.90;;;;;;5101841;27;20416;-76
2021/12/26 01:48:00;;;;;;;4.30;1.52;;;-6.40;99.90;;;;;;5114535;27;20741;-78
2021/12/26 01:50:27;;;;;;;4.30;1.70;;;-6.40;99.90;;;;;;5093695;28;20423;-78
2021/12/26 01:52:53;;;;;;;2.83;0.95;;;-6.40;99.90;;;;;;5114105;27;20062;-77
2021/12/26 01:55:23;;;;;;;2.20;1.10;;;-6.30;99.90;;;;;;5128024;27;20035;-76
2021/12/26 01:57:51;;;;;;;3.47;1.73;;;-6.40;99.90;;;;;;5098138;28;20088;-77
2021/12/26 02:00:17;;;;;;;2.83;1.10;;;-6.40;99.90;;;;;;5119738;27;20051;-78
2021/12/26 02:02:43;;;;;;;2.50;1.15;;;-6.30;99.90;;;;;;5117810;27;20049;-74
2021/12/26 02:05:09;;;;;;;2.58;1.08;;;-6.20;99.90;;;;;;5114079;27;20481;-78
2021/12/26 02:07:34;;;;;;;6.47;1.52;;;-6.30;99.90;;;;;;5113258;27;20043;-76
2021/12/26 02:10:00;;;;;;;7.65;1.77;;;-6.30;99.90;;;;;;5093394;28;20075;-77
2021/12/26 02:12:26;;;;;;;3.33;1.25;;;-6.30;99.90;;;;;;5093130;28;20054;-77
2021/12/26 02:14:53;;;;;;;5.03;1.48;;;-6.30;99.90;;;;;;5085255;27;20436;-78
2021/12/26 02:17:19;;;;;;;4.47;1.23;;;-6.30;99.90;;;;;;5129883;27;20047;-78
2021/12/26 02:19:45;;;;;;;5.10;2.63;;;-6.30;99.90;;;;;;5128701;27;20130;-78
2021/12/26 02:22:18;;;;;;;5.63;2.17;;;-6.30;99.90;;;;;;5095234;28;20468;-76
2021/12/26 02:27:32;;;;;;;3.58;1.77;;;-6.40;99.90;;;;;;5102450;28;20054;-76
2021/12/26 02:30:07;;;;;;;3.30;1.48;;;-6.30;99.90;;;;;;5093185;28;20043;-77
2021/12/26 02:32:33;;;;;;;2.20;1.20;;;-6.40;99.90;;;;;;5097447;27;20475;-77
2021/12/26 02:34:59;;;;;;;3.70;1.33;;;-6.40;99.90;;;;;;5094210;27;20035;-76
2021/12/26 02:37:26;;;;;;;4.95;0.90;;;-6.50;99.90;;;;;;5112846;27;20134;-77
2021/12/26 02:39:52;;;;;;;2.83;1.10;;;-6.40;99.90;;;;;;5118427;27;20035;-78
2021/12/26 02:42:19;;;;;;;2.90;1.40;;;-6.30;99.90;;;;;;5129153;27;20039;-77
2021/12/26 02:44:46;;;;;;;6.68;1.65;;;-6.30;99.90;;;;;;5113582;27;20096;-77
2021/12/26 02:47:11;;;;;;;3.63;2.30;;;-6.30;99.90;;;;;;5116104;27;20058;-77
2021/12/26 02:49:37;;;;;;;9.70;1.77;;;-6.30;99.90;;;;;;5092219;27;20039;-78
2021/12/26 02:52:03;;;;;;;5.15;1.40;;;-6.30;99.90;;;;;;5111805;27;20059;-77
2021/12/26 02:54:29;;;;;;;1.77;1.10;;;-6.40;99.90;;;;;;5131097;27;20136;-78
2021/12/26 02:56:55;;;;;;;8.27;1.25;;;-6.30;99.90;;;;;;5111009;27;20047;-77
2021/12/26 02:59:20;;;;;;;2.53;1.23;;;-6.30;99.90;;;;;;5110381;28;20039;-77
2021/12/26 03:01:46;;;;;;;1.85;1.15;;;-6.30;99.90;;;;;;5111902;27;20035;-77
2021/12/26 03:04:12;;;;;;;3.35;1.50;;;-6.40;99.90;;;;;;5111705;27;20470;-76
2021/12/26 03:06:52;;;;;;;3.90;1.80;;;-6.30;99.90;;;;;;5103777;27;20047;-76
2021/12/26 03:09:18;;;;;;;2.30;1.23;;;-6.30;99.90;;;;;;5099045;28;20427;-77
2021/12/26 03:11:46;;;;;;;3.60;1.45;;;-6.40;99.90;;;;;;5110903;28;20084;-77
2021/12/26 03:14:11;;;;;;;1.60;1.10;;;-6.40;99.90;;;;;;5110995;28;20105;-78
2021/12/26 03:16:44;;;;;;;5.25;1.40;;;-6.40;99.90;;;;;;5113887;27;20481;-79
2021/12/26 03:19:10;;;;;;;1.67;1.17;;;-6.30;99.90;;;;;;5092583;28;20036;-78
2021/12/26 03:21:35;;;;;;;2.80;1.13;;;-6.40;99.90;;;;;;5074340;28;20558;-78
2021/12/26 03:24:01;;;;;;;3.35;1.67;;;-6.40;99.90;;;;;;5114863;27;20093;-78
2021/12/26 03:26:26;;;;;;;1.88;0.90;;;-6.40;99.90;;;;;;5122764;27;20057;-78
2021/12/26 03:28:52;;;;;;;4.03;1.75;;;-6.40;99.90;;;;;;5106427;27;20515;-78
2021/12/26 03:31:17;;;;;;;3.95;1.40;;;-6.40;99.90;;;;;;5083744;28;20043;-78
2021/12/26 03:33:43;;;;;;;1.63;1.13;;;-6.30;99.90;;;;;;5092283;28;20055;-79
2021/12/26 03:36:09;;;;;;;2.10;0.70;;;-6.40;99.90;;;;;;5110622;28;20374;-77
2021/12/26 03:38:36;;;;;;;9.63;1.13;;;-6.40;99.90;;;;;;5104946;28;20549;-78
2021/12/26 03:41:01;;;;;;;3.38;1.35;;;-6.40;99.90;;;;;;5105593;28;20047;-73
2021/12/26 03:43:27;;;;;;;3.03;1.52;;;-6.40;99.90;;;;;;5118310;28;20039;-79
2021/12/26 03:45:54;;;;;;;2.03;1.15;;;-6.40;99.90;;;;;;5124312;28;20481;-78
2021/12/26 03:48:22;;;;;;;3.65;1.13;;;-6.50;99.90;;;;;;5104123;28;20039;-78
2021/12/26 03:50:48;;;;;;;3.17;1.00;;;-6.50;99.90;;;;;;5134201;28;20489;-78
2021/12/26 03:53:14;;;;;;;5.30;1.17;;;-6.50;99.90;;;;;;5109884;28;20043;-73
2021/12/26 03:55:40;;;;;;;2.35;1.08;;;-6.50;99.90;;;;;;5092524;28;20063;-78
2021/12/26 03:58:07;;;;;;;5.13;1.35;;;-6.50;99.90;;;;;;5084824;27;20047;-77
2021/12/26 04:00:32;;;;;;;2.42;1.20;;;-6.50;99.90;;;;;;5130580;27;20441;-79
2021/12/26 04:02:58;;;;;;;4.60;1.60;;;-6.50;99.90;;;;;;5080692;27;20409;-76
2021/12/26 04:05:24;;;;;;;6.28;1.35;;;-6.50;99.90;;;;;;5134458;27;20023;-79
2021/12/26 04:07:50;;;;;;;2.42;1.42;;;-6.60;99.90;;;;;;5132122;27;20446;-77
2021/12/26 04:10:17;;;;;;;5.65;1.50;;;-6.60;99.90;;;;;;5134108;27;20038;-77
2021/12/26 04:12:46;;;;;;;3.45;2.15;;;-6.60;99.90;;;;;;5116244;27;20035;-76
2021/12/26 04:15:14;;;;;;;4.60;0.90;;;-6.60;99.90;;;;;;5113053;27;20050;-77
2021/12/26 04:17:40;;;;;;;2.97;1.08;;;-6.60;99.90;;;;;;5124570;27;20047;-77
2021/12/26 04:20:08;;;;;;;2.85;1.10;;;-6.70;99.90;;;;;;5095506;28;20039;-78
2021/12/26 04:22:34;;;;;;;2.13;1.20;;;-6.60;99.90;;;;;;5117693;27;20043;-78
2021/12/26 04:25:00;;;;;;;3.55;1.45;;;-6.70;99.90;;;;;;5131309;27;20060;-77
2021/12/26 04:27:26;;;;;;;1.27;0.85;;;-6.60;99.90;;;;;;5113027;28;20059;-77
2021/12/26 04:29:53;;;;;;;3.88;1.67;;;-6.60;99.90;;;;;;5113759;28;20459;-78
2021/12/26 04:32:19;;;;;;;6.72;1.25;;;-6.60;99.90;;;;;;5113460;28;20040;-78
2021/12/26 04:34:45;;;;;;;3.50;1.30;;;-6.60;99.90;;;;;;5095620;28;20545;-78
2021/12/26 04:37:11;;;;;;;3.58;1.17;;;-6.70;99.90;;;;;;5113891;27;20071;-77
2021/12/26 04:39:36;;;;;;;3.47;1.65;;;-6.70;99.90;;;;;;5112896;27;20075;-77
2021/12/26 04:42:02;;;;;;;4.90;1.00;;;-6.70;99.90;;;;;;5095301;28;20054;-78
2021/12/26 04:44:28;;;;;;;2.40;1.20;;;-6.80;99.90;;;;;;5113219;28;20050;-79
2021/12/26 04:46:54;;;;;;;2.13;1.65;;;-6.70;99.90;;;;;;5131413;27;20039;-76
2021/12/26 04:49:20;;;;;;;3.92;1.73;;;-6.70;99.90;;;;;;5115418;27;20028;-77
2021/12/26 04:51:46;;;;;;;3.03;2.03;;;-6.70;99.90;;;;;;5119905;27;20409;-76
2021/12/26 04:54:12;;;;;;;2.75;0.88;;;-6.60;99.90;;;;;;5095538;28;20493;-77
2021/12/26 04:56:38;;;;;;;2.33;1.02;;;-6.70;99.90;;;;;;5108376;27;20126;-77
2021/12/26 04:59:04;;;;;;;2.22;1.05;;;-6.80;99.90;;;;;;5105470;28;20119;-75
2021/12/26 05:01:30;;;;;;;2.85;0.68;;;-6.70;99.90;;;;;;5098450;27;20046;-77
2021/12/26 05:03:56;;;;;;;3.00;1.23;;;-6.80;99.90;;;;;;5112347;27;20035;-76
2021/12/26 05:06:22;;;;;;;6.00;1.45;;;-6.80;99.90;;;;;;5111662;27;20081;-77
2021/12/26 05:08:48;;;;;;;3.03;1.23;;;-6.90;99.90;;;;;;5094616;28;20082;-78
2021/12/26 05:11:14;;;;;;;1.98;0.93;;;-6.90;99.90;;;;;;5111384;28;20477;-76
2021/12/26 05:13:39;;;;;;;4.28;1.40;;;-6.90;99.90;;;;;;5078087;28;20036;-76
2021/12/26 05:16:05;;;;;;;4.03;1.80;;;-6.80;99.90;;;;;;5094217;28;20530;-76
2021/12/26 05:18:31;;;;;;;2.92;1.23;;;-6.80;99.90;;;;;;5112076;28;20110;-76
2021/12/26 05:20:56;;;;;;;2.35;1.52;;;-6.80;99.90;;;;;;5112671;28;20119;-76
2021/12/26 05:23:23;;;;;;;3.22;1.65;;;-6.80;99.90;;;;;;5124799;27;20039;-77
2021/12/26 05:25:48;;;;;;;3.40;1.25;;;-6.80;99.90;;;;;;5088045;28;20527;-78
2021/12/26 05:28:14;;;;;;;5.43;1.40;;;-6.80;99.90;;;;;;5112341;28;20052;-73
2021/12/26 05:30:40;;;;;;;5.03;1.90;;;-6.80;99.90;;;;;;5098449;27;20066;-78
2021/12/26 05:33:06;;;;;;;4.68;2.30;;;-6.80;99.90;;;;;;5132045;27;20039;-78
2021/12/26 05:35:32;;;;;;;3.80;1.38;;;-6.80;99.90;;;;;;5118099;27;20039;-78
2021/12/26 05:37:58;;;;;;;1.88;1.50;;;-6.90;99.90;;;;;;5108672;27;20043;-77
2021/12/26 05:40:24;;;;;;;7.78;1.63;;;-6.90;99.90;;;;;;5114573;27;20040;-78
2021/12/26 05:42:50;;;;;;;2.42;1.35;;;-6.80;99.90;;;;;;5112709;28;20050;-77
2021/12/26 05:45:16;;;;;;;1.95;1.25;;;-6.80;99.90;;;;;;5095886;27;20397;-76
2021/12/26 05:47:42;;;;;;;3.58;1.52;;;-6.80;99.90;;;;;;5131238;27;20031;-77
2021/12/26 05:50:13;;;;;;;5.40;2.83;;;-6.70;99.90;;;;;;5128563;27;20066;-78
2021/12/26 05:52:39;;;;;;;2.00;1.00;;;-6.70;99.90;;;;;;5096977;27;20049;-78
2021/12/26 05:55:06;;;;;;;3.72;1.83;;;-6.60;99.90;;;;;;5099969;27;20048;-76
2021/12/26 05:57:32;;;;;;;3.28;2.08;;;-6.70;99.90;;;;;;5112081;28;20130;-76
2021/12/26 05:59:58;;;;;;;7.07;1.80;;;-6.80;99.90;;;;;;5112133;28;20039;-77
2021/12/26 06:02:23;;;;;;;3.17;1.85;;;-6.70;99.90;;;;;;5114100;27;20057;-78
2021/12/26 06:04:49;;;;;;;5.38;1.80;;;-6.70;99.90;;;;;;5099877;28;20051;-79
2021/12/26 06:07:16;;;;;;;2.53;1.17;;;-6.70;99.90;;;;;;5096997;28;20494;-79
2021/12/26 06:09:41;;;;;;;2.70;1.27;;;-6.80;99.90;;;;;;5128168;27;20039;-78
2021/12/26 06:12:08;;;;;;;6.53;1.98;;;-6.80;99.90;;;;;;5132203;27;20053;-76
2021/12/26 06:14:34;;;;;;;2.22;1.40;;;-6.70;99.90;;;;;;5132068;27;20386;-77
2021/12/26 06:16:59;;;;;;;4.53;1.67;;;-6.70;99.90;;;;;;5097609;27;20042;-78
2021/12/26 06:19:25;;;;;;;2.88;1.33;;;-6.80;99.90;;;;;;5092956;28;20078;-78
2021/12/26 06:21:51;;;;;;;3.50;1.60;;;-6.70;99.90;;;;;;5092233;28;20051;-77
2021/12/26 06:24:16;;;;;;;4.97;1.52;;;-6.80;99.90;;;;;;5110647;27;20071;-77
2021/12/26 06:26:42;;;;;;;6.05;1.73;;;-6.80;99.90;;;;;;5106451;27;20100;-77
2021/12/26 06:29:07;;;;;;;2.28;1.75;;;-6.80;99.90;;;;;;5113922;27;20043;-76
2021/12/26 06:31:33;;;;;;;3.10;1.92;;;-6.80;99.90;;;;;;5098095;27;20102;-76
2021/12/26 06:33:59;;;;;;;2.70;1.50;;;-6.80;99.90;;;;;;5123182;27;20514;-76
2021/12/26 06:36:25;;;;;;;6.13;3.40;;;-6.90;99.90;;;;;;5076687;28;20040;-75
2021/12/26 06:38:50;;;;;;;4.25;1.88;;;-6.80;99.90;;;;;;5111587;28;20156;-76
2021/12/26 06:41:16;;;;;;;4.50;2.33;;;-6.80;99.90;;;;;;5118976;27;20035;-77
2021/12/26 06:43:43;;;;;;;2.85;1.38;;;-6.90;99.90;;;;;;5096548;27;20087;-77
2021/12/26 06:46:09;;;;;;;3.17;1.77;;;-6.80;99.90;;;;;;5104110;28;20044;-77
2021/12/26 06:48:39;;;;;;;4.63;2.30;;;-6.80;99.90;;;;;;5076216;28;20055;-77
2021/12/26 06:51:05;;;;;;;4.25;2.17;;;-6.90;99.90;;;;;;5113373;27;20494;-77
2021/12/26 06:53:31;;;;;;;3.80;2.13;;;-6.80;99.90;;;;;;5113029;28;20043;-77
2021/12/26 06:55:56;;;;;;;3.08;1.52;;;-6.80;99.90;;;;;;5104596;28;20031;-78
2021/12/26 06:58:22;;;;;;;3.88;1.90;;;-6.80;99.90;;;;;;5092251;27;20489;-76
2021/12/26 07:00:48;;;;;;;6.25;2.20;;;-6.80;99.90;;;;;;5100823;28;20071;-76
2021/12/26 07:03:14;;;;;;;2.80;1.55;;;-6.80;99.90;;;;;;5092136;28;20104;-73
2021/12/26 07:05:39;;;;;;;8.10;3.00;;;-6.70;99.90;;;;;;5098066;27;20494;-78
2021/12/26 07:08:05;;;;;;;6.30;1.58;;;-6.70;99.90;;;;;;5103307;27;20042;-76
2021/12/26 07:10:31;;;;;;;7.00;1.38;;;-6.70;99.90;;;;;;5112501;27;20423;-77
2021/12/26 07:12:57;;;;;;;4.63;1.80;;;-6.80;99.90;;;;;;5112653;27;20092;-76
2021/12/26 07:15:22;;;;;;;5.35;2.10;;;-6.90;99.90;;;;;;5122890;27;20058;-75
2021/12/26 07:17:48;;;;;;;3.55;2.15;;;-6.90;99.90;;;;;;5131669;27;20516;-79
2021/12/26 07:20:14;;;;;;;5.10;2.20;;;-6.80;99.90;;;;;;5128444;27;20508;-74
2021/12/26 07:22:41;;;;;;;4.68;2.28;;;-6.90;99.90;;;;;;5130970;27;20039;-77
2021/12/26 07:25:07;;;;;;;3.85;2.05;;;-6.90;99.90;;;;;;5127540;27;20069;-77
2021/12/26 07:27:33;;;;;;;3.25;2.20;;;-6.80;99.90;;;;;;5093365;27;20092;-78
2021/12/26 07:30:02;;;;;;;3.67;1.80;;;-6.80;99.90;;;;;;5111007;27;20035;-77
2021/12/26 07:32:29;;;;;;;5.70;2.22;;;-6.90;99.90;;;;;;5126309;27;20042;-78
2021/12/26 07:34:55;;;;;;;7.93;2.50;;;-6.70;99.90;;;;;;5092596;28;20114;-76
2021/12/26 07:37:20;;;;;;;4.97;1.58;;;-6.90;99.90;;;;;;5074605;28;20096;-75
2021/12/26 07:39:46;;;;;;;8.43;2.92;;;-6.80;99.90;;;;;;5092245;28;20048;-77
2021/12/26 07:42:12;;;;;;;4.85;1.98;;;-6.80;99.90;;;;;;5129277;28;20047;-77
2021/12/26 07:44:37;;;;;;;11.38;2.80;;;-6.70;99.90;;;;;;5104896;28;20054;-77
2021/12/26 07:47:04;;;;;;;8.45;2.60;;;-6.70;99.90;;;;;;5091778;28;20050;-77
2021/12/26 07:49:29;;;;;;;4.47;2.40;;;-6.80;99.90;;;;;;5091580;28;20035;-79
2021/12/26 07:51:57;;;;;;;3.88;2.10;;;-6.80;99.90;;;;;;5107534;28;20091;-78
2021/12/26 07:54:23;;;;;;;6.25;2.45;;;-6.70;99.90;;;;;;5118961;28;20044;-77
2021/12/26 07:56:50;;;;;;;4.47;1.95;;;-6.70;99.90;;;;;;5111418;28;20044;-77
2021/12/26 07:59:16;;;;;;;5.90;2.70;;;-6.70;99.90;;;;;;5109458;28;20051;-77
2021/12/26 08:01:42;;;;;;;3.33;2.60;;;-6.70;99.90;;;;;;5110515;28;20040;-79
2021/12/26 08:04:09;;;;;;;5.53;2.75;;;-6.70;99.90;;;;;;5105991;28;20059;-76
2021/12/26 08:06:35;;;;;;;7.40;4.47;;;-6.60;99.90;;;;;;5116132;28;20055;-79
2021/12/26 08:09:01;;;;;;;5.63;2.35;;;-6.60;99.90;;;;;;5111685;28;20096;-80
2021/12/26 08:11:26;;;;;;;5.50;2.42;;;-6.60;99.90;;;;;;5130344;28;20642;-78
2021/12/26 08:13:52;;;;;;;8.05;1.98;;;-6.50;99.90;;;;;;5129781;28;20504;-80
2021/12/26 08:16:18;;;;;;;8.15;2.47;;;-6.50;99.90;;;;;;5120006;28;20048;-79
2021/12/26 08:18:44;;;;;;;3.67;2.30;;;-6.50;99.90;;;;;;5104411;28;20058;-78
2021/12/26 08:21:10;;;;;;;4.53;2.22;;;-6.40;99.90;;;;;;5091182;28;20048;-80
2021/12/26 08:23:36;;;;;;;4.25;2.45;;;-6.30;99.90;;;;;;5110212;28;20027;-77
2021/12/26 08:26:02;;;;;;;3.90;2.10;;;-6.30;99.90;;;;;;5091422;28;20052;-74
2021/12/26 08:28:28;;;;;;;5.93;3.53;;;-6.20;99.90;;;;;;5125379;28;20039;-79
2021/12/26 08:30:54;;;;;;;5.07;2.42;;;-6.20;99.90;;;;;;5104526;28;20043;-78
2021/12/26 08:33:20;;;;;;;6.03;2.92;;;-6.10;99.90;;;;;;5113866;28;20378;-83
2021/12/26 08:35:47;;;;;;;4.95;2.10;;;-6.00;99.90;;;;;;5121292;28;20043;-77
2021/12/26 08:38:16;;;;;;;5.22;2.40;;;-6.00;99.90;;;;;;5110247;28;20051;-74
2021/12/26 08:40:43;;;;;;;4.13;2.30;;;-5.90;99.90;;;;;;5100974;28;20122;-80
2021/12/26 08:43:09;;;;;;;3.70;2.45;;;-5.90;99.90;;;;;;5112129;28;20048;-78
2021/12/26 08:45:36;;;;;;;3.50;2.53;;;-5.80;99.90;;;;;;5093182;27;20508;-78
2021/12/26 08:48:03;;;;;;;3.97;2.75;;;-5.70;99.90;;;;;;5095055;27;20085;-78
2021/12/26 08:50:28;;;;;;;4.68;2.70;;;-5.70;99.90;;;;;;5129651;27;20466;-81
2021/12/26 08:52:55;;;;;;;5.03;2.05;;;-5.60;99.90;;;;;;5077716;28;20166;-76
2021/12/26 08:55:23;;;;;;;4.30;2.70;;;-5.50;99.90;;;;;;5117910;27;20372;-81
2021/12/26 08:57:51;;;;;;;5.55;2.47;;;-5.50;99.90;;;;;;5113803;27;20035;-76
2021/12/26 09:00:17;;;;;;;6.15;2.55;;;-5.40;99.90;;;;;;5113244;27;20382;-75
2021/12/26 09:02:44;;;;;;;5.72;2.78;;;-5.30;99.90;;;;;;5103057;27;20097;-74
2021/12/26 09:05:11;;;;;;;4.55;2.00;;;-5.20;99.90;;;;;;5095405;27;20050;-74
2021/12/26 09:07:37;;;;;;;3.67;2.20;;;-5.10;99.90;;;;;;5109502;27;20086;-72
2021/12/26 09:10:05;;;;;;;3.67;2.03;;;-5.10;99.90;;;;;;5107974;27;20429;-72
2021/12/26 09:12:30;;;;;;;5.47;2.28;;;-5.00;99.90;;;;;;5121488;27;20048;-73
2021/12/26 09:14:56;;;;;;;3.25;2.00;;;-5.00;99.90;;;;;;5100122;28;20452;-73
2021/12/26 09:17:22;;;;;;;6.63;2.92;;;-4.90;99.90;;;;;;5116881;27;20055;-75
2021/12/26 09:19:48;;;;;;;5.03;3.13;;;-4.90;99.90;;;;;;5112607;27;20086;-76
2021/12/26 09:22:15;;;;;;;5.03;3.40;;;-4.90;99.90;;;;;;5102107;27;20055;-76
2021/12/26 09:24:42;;;;;;;5.00;3.38;;;-4.80;99.90;;;;;;5099644;28;20489;-75
2021/12/26 09:27:07;;;;;;;4.90;2.55;;;-4.80;99.90;;;;;;5094252;28;20118;-80
2021/12/26 09:29:33;;;;;;;4.75;2.75;;;-4.70;99.90;;;;;;5100404;27;20122;-80
2021/12/26 09:32:02;;;;;;;3.78;2.13;;;-4.70;99.90;;;;;;5110151;27;20419;-81
2021/12/26 09:34:29;;;;;;;6.22;2.83;;;-4.60;99.90;;;;;;5127409;27;20035;-77
2021/12/26 09:36:55;;;;;;;3.85;2.35;;;-4.50;99.90;;;;;;5122233;27;20035;-77
2021/12/26 09:39:22;;;;;;;4.70;1.95;;;-4.40;99.90;;;;;;5112155;27;20155;-77
2021/12/26 09:41:52;;;;;;;5.65;3.28;;;-4.40;99.90;;;;;;5116066;27;20043;-78
2021/12/26 09:44:19;;;;;;;5.10;3.45;;;-4.30;99.90;;;;;;5118344;27;20155;-79
2021/12/26 09:46:44;;;;;;;4.05;2.65;;;-4.20;99.90;;;;;;5113331;27;20147;-78
2021/12/26 09:49:10;;;;;;;5.68;2.38;;;-4.30;99.90;;;;;;5094768;28;20047;-78
2021/12/26 09:51:36;;;;;;;10.13;3.05;;;-4.10;99.90;;;;;;5111784;28;20035;-80
2021/12/26 09:54:04;;;;;;;4.00;2.25;;;-4.10;99.90;;;;;;5118033;27;20051;-76
2021/12/26 09:56:30;;;;;;;4.28;2.55;;;-4.10;99.90;;;;;;5111356;27;20047;-78
2021/12/26 09:59:03;;;;;;;4.47;1.95;;;-4.10;99.90;;;;;;5130499;27;20038;-78
2021/12/26 10:01:34;;;;;;;5.68;2.13;;;-4.00;99.90;;;;;;5119484;27;20078;-75
2021/12/26 10:04:09;;;;;;;6.13;3.17;;;-3.90;99.90;;;;;;5095776;28;20081;-79
2021/12/26 10:06:35;;;;;;;3.35;2.22;;;-3.90;99.90;;;;;;5111333;27;20051;-78
2021/12/26 10:09:03;;;;;;;3.92;1.90;;;-3.80;99.90;;;;;;5093218;28;20047;-78
2021/12/26 10:11:36;;;;;;;4.57;2.78;;;-3.80;99.90;;;;;;5102190;27;20039;-76
2021/12/26 10:14:24;;;;;;;6.60;2.47;;;-3.70;99.90;;;;;;5112763;27;20385;-75
2021/12/26 10:16:56;;;;;;;5.03;2.50;;;-3.70;99.90;;;;;;5099755;27;20105;-77
2021/12/26 10:19:22;;;;;;;6.90;2.55;;;-3.60;99.90;;;;;;5127869;27;20147;-75
2021/12/26 10:21:53;;;;;;;6.03;4.43;;;-3.60;99.90;;;;;;5076554;28;20126;-83
2021/12/26 10:24:22;;;;;;;4.85;3.17;;;-3.50;99.90;;;;;;5091756;27;20047;-78
2021/12/26 10:26:50;;;;;;;8.65;2.95;;;-3.60;99.90;;;;;;5121993;27;20388;-82
2021/12/26 10:29:28;;;;;;;4.38;2.33;;;-3.50;99.90;;;;;;5112738;27;20051;-79
2021/12/26 10:32:07;;;;;;;8.32;2.83;;;-3.50;99.90;;;;;;5112926;27;20081;-76
2021/12/26 10:35:06;;;;;;;3.72;2.63;;;-3.40;99.90;;;;;;5094480;27;20047;-79
2021/12/26 10:37:39;;;;;;;5.50;2.17;;;-3.40;99.90;;;;;;5098350;27;20081;-81
2021/12/26 10:40:05;;;;;;;5.20;2.60;;;-3.30;99.90;;;;;;5113538;27;20799;-80
2021/12/26 10:42:35;;;;;;;5.40;2.55;;;-3.20;99.90;;;;;;5119447;27;20049;-80
2021/12/26 10:45:05;;;;;;;4.10;2.40;;;-3.30;99.90;;;;;;5116534;27;20047;-82
2021/12/26 10:47:34;;;;;;;4.50;2.83;;;-3.20;99.90;;;;;;5112229;27;20043;-71
2021/12/26 10:50:18;;;;;;;5.95;2.78;;;-3.20;99.90;;;;;;5099287;27;20039;-82
2021/12/26 10:52:58;;;;;;;3.85;2.60;;;-3.10;99.90;;;;;;5128933;27;20043;-85
2021/12/26 10:55:35;;;;;;;5.05;2.45;;;-3.00;99.90;;;;;;5126170;27;20044;-84
2021/12/26 10:58:04;;;;;;;4.88;2.55;;;-3.10;99.90;;;;;;5125484;27;20085;-85
2021/12/26 11:00:33;;;;;;;4.50;2.40;;;-3.00;99.90;;;;;;5118285;27;20074;-83
2021/12/26 11:03:29;;;;;;;7.05;3.00;;;-2.90;99.90;;;;;;5127327;27;20035;-82
2021/12/26 11:06:09;;;;;;;4.43;2.25;;;-3.00;99.90;;;;;;5109553;27;20055;-78
2021/12/26 11:08:41;;;;;;;4.20;2.83;;;-2.90;99.90;;;;;;5104585;27;20043;-83
2021/12/26 11:11:16;;;;;;;6.60;3.38;;;-2.80;99.90;;;;;;5095808;28;20043;-84
2021/12/26 11:13:42;;;;;;;7.13;2.78;;;-2.70;99.90;;;;;;5107989;27;20096;-82
2021/12/26 11:16:08;;;;;;;7.72;3.67;;;-2.70;99.90;;;;;;5100839;28;20050;-83
2021/12/26 11:18:36;;;;;;;4.45;3.05;;;-2.60;99.90;;;;;;5097603;27;20030;-84
2021/12/26 11:21:06;;;;;;;4.53;3.13;;;-2.50;99.90;;;;;;5111714;27;20912;-81
2021/12/26 11:23:38;;;;;;;;;;;-2.50;99.90;;;;;;5097354;28;20035;-83
2021/12/26 11:26:09;;;;;;;5.57;3.42;;;-2.40;99.90;;;;;;5109776;28;19972;-82
2021/12/26 11:28:42;;;;;;;5.97;3.15;;;-2.50;99.90;;;;;;5111119;27;20138;-83
2021/12/26 11:31:16;;;;;;;5.63;3.45;;;-2.40;99.90;;;;;;5111305;27;20035;-81
2021/12/26 11:33:42;;;;;;;4.72;3.20;;;-2.30;99.90;;;;;;5111054;28;20047;-84
2021/12/26 11:36:11;;;;;;;4.80;2.70;;;-2.20;99.90;;;;;;5130201;27;20084;-85
2021/12/26 11:38:37;;;;;;;5.80;3.20;;;-2.20;99.90;;;;;;5116629;27;20040;-84
2021/12/26 11:41:27;;;;;;;4.40;2.65;;;-2.10;99.90;;;;;;5095985;28;20128;-85
2021/12/26 11:44:28;;;;;;;7.05;3.30;;;-2.00;99.90;;;;;;5132057;28;20080;-82
2021/12/26 11:47:09;;;;;;;8.10;3.22;;;-2.00;99.90;;;;;;5091619;28;20040;-77
2021/12/26 11:50:04;;;;;;;3.85;2.33;;;-1.90;99.90;;;;;;5091245;28;20056;-83
2021/12/26 11:53:13;;;;;;;4.65;3.88;;;-1.90;99.90;;;;;;5073596;28;20036;-82
2021/12/26 11:55:57;;;;;;;5.80;2.63;;;-1.80;99.90;;;;;;5091829;28;20040;-82
2021/12/26 11:59:00;;;;;;;7.00;3.17;;;-1.80;99.90;;;;;;5093675;28;20108;-82
2021/12/26 12:01:28;;;;;;;4.40;3.17;;;-1.80;99.90;;;;;;5117804;28;20043;-81
2021/12/26 12:04:22;;;;;;;7.28;3.35;;;-1.70;99.90;;;;;;5120810;28;20389;-76
2021/12/26 12:06:50;;;;;;;11.70;3.80;;;-1.70;99.90;;;;;;5123330;28;20545;-82
2021/12/26 12:09:35;;;;;;;5.18;2.90;;;-1.60;99.90;;;;;;5130390;28;20061;-81
2021/12/26 12:12:11;;;;;;;7.90;3.80;;;-1.50;99.90;;;;;;5110631;28;20122;-81
2021/12/26 12:14:46;;;;;;;6.75;4.20;;;-1.50;99.90;;;;;;5128062;28;20558;-84
2021/12/26 12:17:19;;;;;;;8.32;4.07;;;-1.50;99.90;;;;;;5076016;28;20059;-72
2021/12/26 12:20:09;;;;;;;6.00;4.13;;;-1.50;99.90;;;;;;5116287;27;20046;-83
2021/12/26 12:22:35;;;;;;;5.43;3.85;;;-1.40;99.90;;;;;;5093872;27;20126;-81
2021/12/26 12:25:41;;;;;;;6.50;3.75;;;-1.40;99.90;;;;;;5102082;28;20481;-81
2021/12/26 12:28:13;;;;;;;5.30;2.85;;;-1.40;99.90;;;;;;5098812;28;20081;-81
2021/12/26 12:30:44;;;;;;;7.00;3.65;;;-1.40;99.90;;;;;;5107198;28;20093;-83
2021/12/26 12:33:19;;;;;;;4.70;3.55;;;-1.30;99.90;;;;;;5103625;28;20044;-81
2021/12/26 12:35:53;;;;;;;7.22;2.55;;;-1.40;99.90;;;;;;5105033;28;20122;-81
2021/12/26 12:38:29;;;;;;;7.22;3.67;;;-1.30;99.90;;;;;;5098319;28;20044;-82
2021/12/26 12:40:57;;;;;;;6.40;3.50;;;-1.30;99.90;;;;;;5093048;28;20131;-81
2021/12/26 12:43:25;;;;;;;5.47;3.40;;;-1.30;99.90;;;;;;5091969;28;20460;-84
2021/12/26 12:45:54;;;;;;;4.57;3.22;;;-1.30;99.90;;;;;;5101847;28;20085;-80
2021/12/26 12:48:26;;;;;;;5.93;3.75;;;-1.20;99.90;;;;;;5106114;28;20051;-78
2021/12/26 12:50:55;;;;;;;6.40;4.22;;;-1.20;99.90;;;;;;5104434;28;20035;-87
2021/12/26 12:53:44;;;;;;;7.35;3.65;;;-1.20;99.90;;;;;;5098470;28;20047;-82
2021/12/26 12:56:30;;;;;;;4.65;3.63;;;-1.20;99.90;;;;;;5099449;28;20047;-85
2021/12/26 12:59:14;;;;;;;6.50;3.55;;;-1.20;99.90;;;;;;5113684;28;20393;-81